This is the latest recevied weather packets stored in our database for station/object WMKC. If no packets are shown the sender has not sent any weather packets the latest 1 day(s).
| Time | Temp. | Humidity | Pressure | Rain* | Wind** | Luminosity | Snow |
|---|---|---|---|---|---|---|---|
| 1836274738 | 30.56° C | 66% | 1011 hPa | - | 2.68 m/s, 280° | - | - |
| 1778058635 | 32.78° C | 59% | 1006 hPa | - | 4.02 m/s, 90° | - | - |
| 1778055034 | 32.78° C | 59% | 1006 hPa | - | 4.47 m/s, 50° | - | - |
| 1778051444 | 32.78° C | 55% | 1006 hPa | - | 4.02 m/s, 40° | - | - |
| 1778047833 | 31.67° C | 66% | 1007 hPa | - | 4.47 m/s, 50° | - | - |
| 1778044234 | 32.78° C | 59% | 1008 hPa | - | 4.47 m/s, 60° | - | - |
| 1778040634 | 32.78° C | 52% | 1009 hPa | - | 4.02 m/s, 60° | - | - |
| 1778037042 | 32.78° C | 55% | 1009 hPa | - | 3.13 m/s, 40° | - | - |
| 1778033432 | 31.67° C | 62% | 1009 hPa | - | 2.24 m/s, 100° | - | - |
| 1778029833 | 28.89° C | 74% | 1009 hPa | - | 0.89 m/s, 0° | - | - |
| 1778026234 | 26.67° C | 83% | 1008 hPa | - | 1.34 m/s, 230° | - | - |
| 1778022632 | 25.56° C | 83% | 1008 hPa | - | 0.89 m/s, 0° | - | - |
| 1778019045 | 26.67° C | 83% | 1007 hPa | - | 0.89 m/s, 0° | - | - |
| 1778015432 | 26.67° C | 83% | 1007 hPa | - | 0.89 m/s, 0° | - | - |
| 1778011833 | 27.78° C | 78% | 1007 hPa | - | 1.34 m/s, 0° | - | - |
| 1778008232 | 27.78° C | 78% | 1008 hPa | - | 1.34 m/s, 190° | - | - |
| 1778004645 | 27.78° C | 78% | 1008 hPa | - | 1.34 m/s, 110° | - | - |
| 1778001031 | 27.78° C | 78% | 1008 hPa | - | 1.79 m/s, 100° | - | - |
| 1777997432 | 28.89° C | 74% | 1009 hPa | - | 1.34 m/s, 0° | - | - |
| 1777995031 | 28.89° C | 74% | 1009 hPa | - | 1.79 m/s, 90° | - | - |
| 1777994448 | 28.33° C | 78% | 1010 hPa | - | 1.79 m/s, 86° | - | - |
| 1777993831 | 28.89° C | 74% | 1009 hPa | - | 1.79 m/s, 90° | - | - |
| 1777990234 | 28.89° C | 74% | 1008 hPa | - | 1.34 m/s, 90° | - | - |
| 1777986644 | 28.89° C | 74% | 1007 hPa | - | 2.68 m/s, 80° | - | - |
| 1777983031 | 30° C | 70% | 1007 hPa | - | 3.13 m/s, 70° | - | - |
* Rain since midnight (hover to see other rain measurements)
** Current wind speed in m/s (hover to see current wind gust speed)